Bourbon Astyanax — FMGV — position and weather

sailwx.info

Track history (hours):
 
Tides and Currents Weather Stations Pressure Air Temp Water Temp Dewpoint Dewpoint Depression Visibility Wind Speed Wind Dir Waves Ship Positions

Bourbon Astyanax

Last reported at 2017-Sep-21 21:59 UTC. Time now 2017-Sep-22 02:45 UTC.
Position N 04°26' W 002°08'.

Length 67 m; draft 5.9 m.

Type: Tug. MMSI: 228322600.

Date/timePositionNaut miles runAvg speedWind from/ knotsBaromVisibWave heightAir tempDewpointWater temp
2017-Sep-21 21:59N 04°26' W 002°08'3 5.7
2017-Sep-21 21:30N 04°25' W 002°10'3 5.8
2017-Sep-21 20:59N 04°23' W 002°13'3 6.1
2017-Sep-21 20:29N 04°21' W 002°15'3 5.8
2017-Sep-21 19:59N 04°20' W 002°18'3 5.5
2017-Sep-21 19:29N 04°20' W 002°21'3 5.7
2017-Sep-21 19:00N 04°18' W 002°23'3 6.1
2017-Sep-21 18:29N 04°17' W 002°26'3 6.8
2017-Sep-21 18:00N 04°15' W 002°28'25 1.1
2017-Sep-20 19:38N 04°16' W 002°54'2 6.7
2017-Sep-20 19:22N 04°18' W 002°54'4 6.9
2017-Sep-20 18:48N 04°22' W 002°54'3 8.4
2017-Sep-20 18:29N 04°24' W 002°54'4 8.7
2017-Sep-20 17:59N 04°29' W 002°54'5 9.1
2017-Sep-20 17:28N 04°33' W 002°54'3 6.0
2017-Sep-20 16:59N 04°36' W 002°54'0 0.4
2017-Sep-20 16:30N 04°36' W 002°54'2 3.3
2017-Sep-20 15:59N 04°36' W 002°55'1 2.3
2017-Sep-20 15:29N 04°37' W 002°56'1 2.3
2017-Sep-20 15:00N 04°38' W 002°56'3 2.4
2017-Sep-20 13:58N 04°35' W 002°56'1 2.8
2017-Sep-20 13:29N 04°34' W 002°56'0 0.9
2017-Sep-20 12:59N 04°34' W 002°56'1 1.1
2017-Sep-20 11:46N 04°36' W 002°55'0 0.5
2017-Sep-20 11:28N 04°36' W 002°55'0 0.5
2017-Sep-20 10:57N 04°36' W 002°55'0 0.5
2017-Sep-20 10:30N 04°36' W 002°55'0 0.5
2017-Sep-20 09:59N 04°35' W 002°54'0 0.5
2017-Sep-20 09:28N 04°35' W 002°54'0 0.6
2017-Sep-20 08:59N 04°35' W 002°54'4 8.7
2017-Sep-20 08:30N 04°31' W 002°53'5 9.9
2017-Sep-20 07:59N 04°26' W 002°54'2 3.2
2017-Sep-20 07:30N 04°24' W 002°54'1 2.6
2017-Sep-20 07:00N 04°26' W 002°54'1 1.8
2017-Sep-20 06:30N 04°25' W 002°54'1 1.4
2017-Sep-20 05:48N 04°25' W 002°55'0 1.1
2017-Sep-20 05:29N 04°25' W 002°54'2 2.6
2017-Sep-20 04:45N 04°26' W 002°53'2 6.0
2017-Sep-20 04:29N 04°28' W 002°52'3 5.8
2017-Sep-20 04:00N 04°30' W 002°50'4 7.5
2017-Sep-20 03:28N 04°31' W 002°46'4 8.6
2017-Sep-20 03:00N 04°31' W 002°42'4 8.4
2017-Sep-20 02:30N 04°32' W 002°38'4 8.4
2017-Sep-20 01:59N 04°32' W 002°34'4 8.6
2017-Sep-20 01:29N 04°31' W 002°29'4 8.7
2017-Sep-20 01:00N 04°31' W 002°25'4 8.7
2017-Sep-20 00:30N 04°31' W 002°21'4 8.5
2017-Sep-19 23:59N 04°30' W 002°16'4 8.3
2017-Sep-19 23:29N 04°30' W 002°12'4 8.4
2017-Sep-19 22:59N 04°30' W 002°08'4 8.3
2017-Sep-19 22:29N 04°30' W 002°04'4 8.0
2017-Sep-19 22:00N 04°31' W 001°60'28 7.5
2017-Sep-19 18:13N 04°54' W 001°43'1 3.2
2017-Sep-19 17:54N 04°53' W 001°44'0 0.9
2017-Sep-19 17:29N 04°53' W 001°45'0 0.0
2017-Sep-19 17:00N 04°53' W 001°45'0 0.0
2017-Sep-19 16:30N 04°53' W 001°45'0 0.0
2017-Sep-19 15:59N 04°53' W 001°45'0 0.0
2017-Sep-19 15:29N 04°53' W 001°45'0 0.0
2017-Sep-19 14:57N 04°53' W 001°45'0 0.0
2017-Sep-19 14:29N 04°53' W 001°45'0 0.0
2017-Sep-19 13:59N 04°53' W 001°45'0 0.0
2017-Sep-19 13:30N 04°53' W 001°45'0 0.0
2017-Sep-19 13:00N 04°53' W 001°45'0 0.0
2017-Sep-19 12:28N 04°53' W 001°45'0 0.0
2017-Sep-19 11:59N 04°53' W 001°45'0 0.0
2017-Sep-19 11:30N 04°53' W 001°45'0 0.0
2017-Sep-19 11:00N 04°53' W 001°45'0 0.0
2017-Sep-19 10:29N 04°53' W 001°45'0 0.0
2017-Sep-19 09:59N 04°53' W 001°45'0 0.0
2017-Sep-19 09:29N 04°53' W 001°45'0 0.0
2017-Sep-19 09:00N 04°53' W 001°45'0 0.0
2017-Sep-19 08:30N 04°53' W 001°45'0 0.1
2017-Sep-19 07:59N 04°53' W 001°44'1 1.0
2017-Sep-19 07:29N 04°53' W 001°44'1 2.7
2017-Sep-19 06:59N 04°54' W 001°43'40 5.0
2017-Sep-18 23:07N 04°30' W 002°15'1 7.7
2017-Sep-18 22:59N 04°31' W 002°16'4 7.6
2017-Sep-18 22:28N 04°32' W 002°20'3 7.5
2017-Sep-18 22:00N 04°31' W 002°23'4 7.7
2017-Sep-18 21:30N 04°30' W 002°27'4 7.6
2017-Sep-18 21:00N 04°31' W 002°31'4 7.0
2017-Sep-18 20:27N 04°31' W 002°34'3 6.8
2017-Sep-18 19:59N 04°31' W 002°38'3 7.3
2017-Sep-18 19:30N 04°31' W 002°41'4 7.5
2017-Sep-18 19:00N 04°31' W 002°45'3 5.8
2017-Sep-18 18:30N 04°31' W 002°48'3 5.7
2017-Sep-18 17:59N 04°32' W 002°51'3 6.1
2017-Sep-18 17:30N 04°34' W 002°53'1 1.5
2017-Sep-18 17:00N 04°35' W 002°53'1 1.5
2017-Sep-18 16:29N 04°35' W 002°53'1 0.3
2017-Sep-18 13:18N 04°36' W 002°53'3 8.0
2017-Sep-18 12:55N 04°39' W 002°51'1 2.7
2017-Sep-18 12:29N 04°39' W 002°50'3 4.7
2017-Sep-18 11:56N 04°37' W 002°48'0 0.9
2017-Sep-18 11:29N 04°38' W 002°48'0 0.8
2017-Sep-18 10:59N 04°38' W 002°48'0 0.9
2017-Sep-18 10:30N 04°38' W 002°49'0 0.8
2017-Sep-18 10:00N 04°39' W 002°49'0 0.5
2017-Sep-18 09:27N 04°38' W 002°49'1 1.6
2017-Sep-18 08:59N 04°38' W 002°49'1 1.9
2017-Sep-18 08:28N 04°37' W 002°50'1 2.3
2017-Sep-18 08:00N 04°36' W 002°50'1 2.2
2017-Sep-18 07:29N 04°35' W 002°50'1 2.3
2017-Sep-18 07:00N 04°34' W 002°51'1 1.1
2017-Sep-18 06:28N 04°34' W 002°51'1 1.4
2017-Sep-18 06:00N 04°35' W 002°51'1 1.4
2017-Sep-18 05:29N 04°35' W 002°52'1 1.4
2017-Sep-18 05:00N 04°36' W 002°52'1 1.4
2017-Sep-18 04:29N 04°37' W 002°52'1 1.5
2017-Sep-18 04:00N 04°37' W 002°53'1 1.5
2017-Sep-18 03:30N 04°38' W 002°53'1 1.4
2017-Sep-18 03:00N 04°39' W 002°53'2 2.2
2017-Sep-18 02:05N 04°37' W 002°52'0 4.7
2017-Sep-18 01:59N 04°37' W 002°51'2 3.3
2017-Sep-18 01:30N 04°36' W 002°50'0 0.6
2017-Sep-18 00:59N 04°36' W 002°50'0 0.6
2017-Sep-18 00:30N 04°36' W 002°50'1 1.1
2017-Sep-17 23:59N 04°37' W 002°50'0 0.9
2017-Sep-17 23:30N 04°37' W 002°50'0 0.7
2017-Sep-17 23:00N 04°38' W 002°51'3 4.9
2017-Sep-17 22:30N 04°36' W 002°49'0 0.8
2017-Sep-17 22:00N 04°36' W 002°49'0 0.8
2017-Sep-17 21:30N 04°36' W 002°50'0 0.8
2017-Sep-17 21:00N 04°37' W 002°50'0 0.8
2017-Sep-17 20:29N 04°37' W 002°50'0 0.7
2017-Sep-17 20:00N 04°37' W 002°50'0 0.9
2017-Sep-17 19:30N 04°37' W 002°51'2 3.6
2017-Sep-17 19:00N 04°38' W 002°49'1 1.3
2017-Sep-17 18:29N 04°38' W 002°49'3 5.1
2017-Sep-17 17:59N 04°40' W 002°47'510.4
2017-Sep-17 17:29N 04°42' W 002°42'1 2.9
2017-Sep-17 17:00N 04°43' W 002°41'5 9.8
2017-Sep-17 16:29N 04°40' W 002°45'510.7
2017-Sep-17 15:59N 04°37' W 002°50'4 2.8
2017-Sep-17 14:33N 04°36' W 002°53'0 8.5
2017-Sep-17 14:31N 04°36' W 002°54'13 1.0
2017-Sep-17 01:19N 04°31' W 002°42'3 9.9
2017-Sep-17 01:00N 04°31' W 002°39'510.0
2017-Sep-17 00:29N 04°31' W 002°34'510.1
2017-Sep-16 23:58N 04°30' W 002°28'510.1
2017-Sep-16 23:30N 04°30' W 002°24'510.3
2017-Sep-16 23:00N 04°30' W 002°18'5 9.7
2017-Sep-16 22:29N 04°30' W 002°13'510.1
2017-Sep-16 21:59N 04°30' W 002°08'5 9.9
2017-Sep-16 21:30N 04°30' W 002°04'  
2017-Sep-13 23:28N 04°31' W 002°15'3 7.3
2017-Sep-13 23:00N 04°31' W 002°18'3 6.7
2017-Sep-13 22:30N 04°32' W 002°21'3 6.3
2017-Sep-13 21:59N 04°33' W 002°24'3 6.1
2017-Sep-13 21:29N 04°33' W 002°27'3 6.1
2017-Sep-13 20:59N 04°33' W 002°30'3 6.5
2017-Sep-13 20:30N 04°33' W 002°34'3 6.5
2017-Sep-13 20:00N 04°32' W 002°37'3 6.5
2017-Sep-13 19:30N 04°32' W 002°40'4 7.0
2017-Sep-13 19:00N 04°31' W 002°44'4 7.0
2017-Sep-13 18:30N 04°31' W 002°47'3 6.5
2017-Sep-13 17:59N 04°33' W 002°50'2 4.2
2017-Sep-13 17:29N 04°34' W 002°51'1 1.1
2017-Sep-13 16:59N 04°35' W 002°51'1 1.2
2017-Sep-13 16:29N 04°35' W 002°52'1 1.1
2017-Sep-13 15:59N 04°36' W 002°52'1 1.1
2017-Sep-13 15:30N 04°36' W 002°52'1 1.5
2017-Sep-13 14:59N 04°37' W 002°53'1 1.2
2017-Sep-13 14:24N 04°37' W 002°54'0 0.1
2017-Sep-13 13:55N 04°37' W 002°53'0 0.1
2017-Sep-13 13:23N 04°37' W 002°53'0 0.1
2017-Sep-13 12:59N 04°37' W 002°53'0 0.1
2017-Sep-13 12:28N 04°37' W 002°53'0 0.1
2017-Sep-13 11:58N 04°37' W 002°53'0 0.1
2017-Sep-13 11:30N 04°37' W 002°54'0 0.0
2017-Sep-13 10:59N 04°37' W 002°54'0 0.0
2017-Sep-13 10:29N 04°37' W 002°54'0 0.0
2017-Sep-13 10:00N 04°37' W 002°54'0 0.0
2017-Sep-13 09:30N 04°37' W 002°54'0 0.0
2017-Sep-13 09:00N 04°37' W 002°54'0 0.1
2017-Sep-13 08:29N 04°37' W 002°54'0 0.1
2017-Sep-13 08:00N 04°37' W 002°54'0 0.4
2017-Sep-13 07:29N 04°36' W 002°54'0 0.3
2017-Sep-13 06:57N 04°37' W 002°53'1 1.2
2017-Sep-13 06:00N 04°36' W 002°55'0 0.4
2017-Sep-13 05:29N 04°37' W 002°55'0 0.3
2017-Sep-13 04:54N 04°37' W 002°55'0 0.4
2017-Sep-13 04:30N 04°37' W 002°55'0 0.3
2017-Sep-13 04:00N 04°37' W 002°55'0 0.4
2017-Sep-13 03:23N 04°37' W 002°55'1 0.7
2017-Sep-13 02:37N 04°38' W 002°55'0 0.5
2017-Sep-13 02:30N 04°38' W 002°55'0 0.5
2017-Sep-13 02:00N 04°38' W 002°55'0 0.4
2017-Sep-13 01:29N 04°38' W 002°55'0 0.3
2017-Sep-13 00:56N 04°38' W 002°55'0 0.7
2017-Sep-13 00:28N 04°38' W 002°55'1 1.2
2017-Sep-12 23:53N 04°38' W 002°55'1 1.7
2017-Sep-12 23:29N 04°38' W 002°55'2 1.4
2017-Sep-12 21:56N 04°38' W 002°57'1 1.3
2017-Sep-12 21:29N 04°37' W 002°57'0 0.9
2017-Sep-12 21:00N 04°37' W 002°57'0 0.7
2017-Sep-12 20:28N 04°37' W 002°56'0 0.8
2017-Sep-12 19:59N 04°37' W 002°56'0 1.0
2017-Sep-12 19:29N 04°37' W 002°56'1 1.0
2017-Sep-12 18:58N 04°37' W 002°55'0 1.0
2017-Sep-12 18:30N 04°37' W 002°55'1 1.0
2017-Sep-12 17:59N 04°37' W 002°54'1 1.0
2017-Sep-12 17:13N 04°37' W 002°53'0 0.9
2017-Sep-12 17:00N 04°37' W 002°53'1 0.9
2017-Sep-12 16:27N 04°37' W 002°53'1 1.5
2017-Sep-12 16:00N 04°36' W 002°52'1 2.3
2017-Sep-12 15:29N 04°35' W 002°52'1 2.8
2017-Sep-12 14:59N 04°34' W 002°53'  
Track history (hours):
 
Tides and Currents Weather Stations Pressure Air Temp Water Temp Dewpoint Dewpoint Depression Visibility Wind Speed Wind Dir Waves Ship Positions

Bourbon Astyanax

Last reported at 2017-Sep-21 21:59 UTC. Time now 2017-Sep-22 02:45 UTC.
Position N 04°26' W 002°08'.

Length 67 m; draft 5.9 m.

Type: Tug. MMSI: 228322600.

Date/timePositionNaut miles runAvg speedWind from/ knotsBaromVisibWave heightAir tempDewpointWater temp
2017-Sep-21 21:59N 04°26' W 002°08'3 5.7
2017-Sep-21 21:30N 04°25' W 002°10'3 5.8
2017-Sep-21 20:59N 04°23' W 002°13'3 6.1
2017-Sep-21 20:29N 04°21' W 002°15'3 5.8
2017-Sep-21 19:59N 04°20' W 002°18'3 5.5
2017-Sep-21 19:29N 04°20' W 002°21'3 5.7
2017-Sep-21 19:00N 04°18' W 002°23'3 6.1
2017-Sep-21 18:29N 04°17' W 002°26'3 6.8
2017-Sep-21 18:00N 04°15' W 002°28'25 1.1
2017-Sep-20 19:38N 04°16' W 002°54'2 6.7
2017-Sep-20 19:22N 04°18' W 002°54'4 6.9
2017-Sep-20 18:48N 04°22' W 002°54'3 8.4
2017-Sep-20 18:29N 04°24' W 002°54'4 8.7
2017-Sep-20 17:59N 04°29' W 002°54'5 9.1
2017-Sep-20 17:28N 04°33' W 002°54'3 6.0
2017-Sep-20 16:59N 04°36' W 002°54'0 0.4
2017-Sep-20 16:30N 04°36' W 002°54'2 3.3
2017-Sep-20 15:59N 04°36' W 002°55'1 2.3
2017-Sep-20 15:29N 04°37' W 002°56'1 2.3
2017-Sep-20 15:00N 04°38' W 002°56'3 2.4
2017-Sep-20 13:58N 04°35' W 002°56'1 2.8
2017-Sep-20 13:29N 04°34' W 002°56'0 0.9
2017-Sep-20 12:59N 04°34' W 002°56'1 1.1
2017-Sep-20 11:46N 04°36' W 002°55'0 0.5
2017-Sep-20 11:28N 04°36' W 002°55'0 0.5
2017-Sep-20 10:57N 04°36' W 002°55'0 0.5
2017-Sep-20 10:30N 04°36' W 002°55'0 0.5
2017-Sep-20 09:59N 04°35' W 002°54'0 0.5
2017-Sep-20 09:28N 04°35' W 002°54'0 0.6
2017-Sep-20 08:59N 04°35' W 002°54'4 8.7
2017-Sep-20 08:30N 04°31' W 002°53'5 9.9
2017-Sep-20 07:59N 04°26' W 002°54'2 3.2
2017-Sep-20 07:30N 04°24' W 002°54'1 2.6
2017-Sep-20 07:00N 04°26' W 002°54'1 1.8
2017-Sep-20 06:30N 04°25' W 002°54'1 1.4
2017-Sep-20 05:48N 04°25' W 002°55'0 1.1
2017-Sep-20 05:29N 04°25' W 002°54'2 2.6
2017-Sep-20 04:45N 04°26' W 002°53'2 6.0
2017-Sep-20 04:29N 04°28' W 002°52'3 5.8
2017-Sep-20 04:00N 04°30' W 002°50'4 7.5
2017-Sep-20 03:28N 04°31' W 002°46'4 8.6
2017-Sep-20 03:00N 04°31' W 002°42'4 8.4
2017-Sep-20 02:30N 04°32' W 002°38'4 8.4
2017-Sep-20 01:59N 04°32' W 002°34'4 8.6
2017-Sep-20 01:29N 04°31' W 002°29'4 8.7
2017-Sep-20 01:00N 04°31' W 002°25'4 8.7
2017-Sep-20 00:30N 04°31' W 002°21'4 8.5
2017-Sep-19 23:59N 04°30' W 002°16'4 8.3
2017-Sep-19 23:29N 04°30' W 002°12'4 8.4
2017-Sep-19 22:59N 04°30' W 002°08'4 8.3
2017-Sep-19 22:29N 04°30' W 002°04'4 8.0
2017-Sep-19 22:00N 04°31' W 001°60'28 7.5
2017-Sep-19 18:13N 04°54' W 001°43'1 3.2
2017-Sep-19 17:54N 04°53' W 001°44'0 0.9
2017-Sep-19 17:29N 04°53' W 001°45'0 0.0
2017-Sep-19 17:00N 04°53' W 001°45'0 0.0
2017-Sep-19 16:30N 04°53' W 001°45'0 0.0
2017-Sep-19 15:59N 04°53' W 001°45'0 0.0
2017-Sep-19 15:29N 04°53' W 001°45'0 0.0
2017-Sep-19 14:57N 04°53' W 001°45'0 0.0
2017-Sep-19 14:29N 04°53' W 001°45'0 0.0
2017-Sep-19 13:59N 04°53' W 001°45'0 0.0
2017-Sep-19 13:30N 04°53' W 001°45'0 0.0
2017-Sep-19 13:00N 04°53' W 001°45'0 0.0
2017-Sep-19 12:28N 04°53' W 001°45'0 0.0
2017-Sep-19 11:59N 04°53' W 001°45'0 0.0
2017-Sep-19 11:30N 04°53' W 001°45'0 0.0
2017-Sep-19 11:00N 04°53' W 001°45'0 0.0
2017-Sep-19 10:29N 04°53' W 001°45'0 0.0
2017-Sep-19 09:59N 04°53' W 001°45'0 0.0
2017-Sep-19 09:29N 04°53' W 001°45'0 0.0
2017-Sep-19 09:00N 04°53' W 001°45'0 0.0
2017-Sep-19 08:30N 04°53' W 001°45'0 0.1
2017-Sep-19 07:59N 04°53' W 001°44'1 1.0
2017-Sep-19 07:29N 04°53' W 001°44'1 2.7
2017-Sep-19 06:59N 04°54' W 001°43'40 5.0
2017-Sep-18 23:07N 04°30' W 002°15'1 7.7
2017-Sep-18 22:59N 04°31' W 002°16'4 7.6
2017-Sep-18 22:28N 04°32' W 002°20'3 7.5
2017-Sep-18 22:00N 04°31' W 002°23'4 7.7
2017-Sep-18 21:30N 04°30' W 002°27'4 7.6
2017-Sep-18 21:00N 04°31' W 002°31'4 7.0
2017-Sep-18 20:27N 04°31' W 002°34'3 6.8
2017-Sep-18 19:59N 04°31' W 002°38'3 7.3
2017-Sep-18 19:30N 04°31' W 002°41'4 7.5
2017-Sep-18 19:00N 04°31' W 002°45'3 5.8
2017-Sep-18 18:30N 04°31' W 002°48'3 5.7
2017-Sep-18 17:59N 04°32' W 002°51'3 6.1
2017-Sep-18 17:30N 04°34' W 002°53'1 1.5
2017-Sep-18 17:00N 04°35' W 002°53'1 1.5
2017-Sep-18 16:29N 04°35' W 002°53'1 0.3
2017-Sep-18 13:18N 04°36' W 002°53'3 8.0
2017-Sep-18 12:55N 04°39' W 002°51'1 2.7
2017-Sep-18 12:29N 04°39' W 002°50'3 4.7
2017-Sep-18 11:56N 04°37' W 002°48'0 0.9
2017-Sep-18 11:29N 04°38' W 002°48'0 0.8
2017-Sep-18 10:59N 04°38' W 002°48'0 0.9
2017-Sep-18 10:30N 04°38' W 002°49'0 0.8
2017-Sep-18 10:00N 04°39' W 002°49'0 0.5
2017-Sep-18 09:27N 04°38' W 002°49'1 1.6
2017-Sep-18 08:59N 04°38' W 002°49'1 1.9
2017-Sep-18 08:28N 04°37' W 002°50'1 2.3
2017-Sep-18 08:00N 04°36' W 002°50'1 2.2
2017-Sep-18 07:29N 04°35' W 002°50'1 2.3
2017-Sep-18 07:00N 04°34' W 002°51'1 1.1
2017-Sep-18 06:28N 04°34' W 002°51'1 1.4
2017-Sep-18 06:00N 04°35' W 002°51'1 1.4
2017-Sep-18 05:29N 04°35' W 002°52'1 1.4
2017-Sep-18 05:00N 04°36' W 002°52'1 1.4
2017-Sep-18 04:29N 04°37' W 002°52'1 1.5
2017-Sep-18 04:00N 04°37' W 002°53'1 1.5
2017-Sep-18 03:30N 04°38' W 002°53'1 1.4
2017-Sep-18 03:00N 04°39' W 002°53'2 2.2
2017-Sep-18 02:05N 04°37' W 002°52'0 4.7
2017-Sep-18 01:59N 04°37' W 002°51'2 3.3
2017-Sep-18 01:30N 04°36' W 002°50'0 0.6
2017-Sep-18 00:59N 04°36' W 002°50'0 0.6
2017-Sep-18 00:30N 04°36' W 002°50'1 1.1
2017-Sep-17 23:59N 04°37' W 002°50'0 0.9
2017-Sep-17 23:30N 04°37' W 002°50'0 0.7
2017-Sep-17 23:00N 04°38' W 002°51'3 4.9
2017-Sep-17 22:30N 04°36' W 002°49'0 0.8
2017-Sep-17 22:00N 04°36' W 002°49'0 0.8
2017-Sep-17 21:30N 04°36' W 002°50'0 0.8
2017-Sep-17 21:00N 04°37' W 002°50'0 0.8
2017-Sep-17 20:29N 04°37' W 002°50'0 0.7
2017-Sep-17 20:00N 04°37' W 002°50'0 0.9
2017-Sep-17 19:30N 04°37' W 002°51'2 3.6
2017-Sep-17 19:00N 04°38' W 002°49'1 1.3
2017-Sep-17 18:29N 04°38' W 002°49'3 5.1
2017-Sep-17 17:59N 04°40' W 002°47'510.4
2017-Sep-17 17:29N 04°42' W 002°42'1 2.9
2017-Sep-17 17:00N 04°43' W 002°41'5 9.8
2017-Sep-17 16:29N 04°40' W 002°45'510.7
2017-Sep-17 15:59N 04°37' W 002°50'4 2.8
2017-Sep-17 14:33N 04°36' W 002°53'0 8.5
2017-Sep-17 14:31N 04°36' W 002°54'13 1.0
2017-Sep-17 01:19N 04°31' W 002°42'3 9.9
2017-Sep-17 01:00N 04°31' W 002°39'510.0
2017-Sep-17 00:29N 04°31' W 002°34'510.1
2017-Sep-16 23:58N 04°30' W 002°28'510.1
2017-Sep-16 23:30N 04°30' W 002°24'510.3
2017-Sep-16 23:00N 04°30' W 002°18'5 9.7
2017-Sep-16 22:29N 04°30' W 002°13'510.1
2017-Sep-16 21:59N 04°30' W 002°08'5 9.9
2017-Sep-16 21:30N 04°30' W 002°04'  
2017-Sep-13 23:28N 04°31' W 002°15'3 7.3
2017-Sep-13 23:00N 04°31' W 002°18'3 6.7
2017-Sep-13 22:30N 04°32' W 002°21'3 6.3
2017-Sep-13 21:59N 04°33' W 002°24'3 6.1
2017-Sep-13 21:29N 04°33' W 002°27'3 6.1
2017-Sep-13 20:59N 04°33' W 002°30'3 6.5
2017-Sep-13 20:30N 04°33' W 002°34'3 6.5
2017-Sep-13 20:00N 04°32' W 002°37'3 6.5
2017-Sep-13 19:30N 04°32' W 002°40'4 7.0
2017-Sep-13 19:00N 04°31' W 002°44'4 7.0
2017-Sep-13 18:30N 04°31' W 002°47'3 6.5
2017-Sep-13 17:59N 04°33' W 002°50'2 4.2
2017-Sep-13 17:29N 04°34' W 002°51'1 1.1
2017-Sep-13 16:59N 04°35' W 002°51'1 1.2
2017-Sep-13 16:29N 04°35' W 002°52'1 1.1
2017-Sep-13 15:59N 04°36' W 002°52'1 1.1
2017-Sep-13 15:30N 04°36' W 002°52'1 1.5
2017-Sep-13 14:59N 04°37' W 002°53'1 1.2
2017-Sep-13 14:24N 04°37' W 002°54'0 0.1
2017-Sep-13 13:55N 04°37' W 002°53'0 0.1
2017-Sep-13 13:23N 04°37' W 002°53'0 0.1
2017-Sep-13 12:59N 04°37' W 002°53'0 0.1
2017-Sep-13 12:28N 04°37' W 002°53'0 0.1
2017-Sep-13 11:58N 04°37' W 002°53'0 0.1
2017-Sep-13 11:30N 04°37' W 002°54'0 0.0
2017-Sep-13 10:59N 04°37' W 002°54'0 0.0
2017-Sep-13 10:29N 04°37' W 002°54'0 0.0
2017-Sep-13 10:00N 04°37' W 002°54'0 0.0
2017-Sep-13 09:30N 04°37' W 002°54'0 0.0
2017-Sep-13 09:00N 04°37' W 002°54'0 0.1
2017-Sep-13 08:29N 04°37' W 002°54'0 0.1
2017-Sep-13 08:00N 04°37' W 002°54'0 0.4
2017-Sep-13 07:29N 04°36' W 002°54'0 0.3
2017-Sep-13 06:57N 04°37' W 002°53'1 1.2
2017-Sep-13 06:00N 04°36' W 002°55'0 0.4
2017-Sep-13 05:29N 04°37' W 002°55'0 0.3
2017-Sep-13 04:54N 04°37' W 002°55'0 0.4
2017-Sep-13 04:30N 04°37' W 002°55'0 0.3
2017-Sep-13 04:00N 04°37' W 002°55'0 0.4
2017-Sep-13 03:23N 04°37' W 002°55'1 0.7
2017-Sep-13 02:37N 04°38' W 002°55'0 0.5
2017-Sep-13 02:30N 04°38' W 002°55'0 0.5
2017-Sep-13 02:00N 04°38' W 002°55'0 0.4
2017-Sep-13 01:29N 04°38' W 002°55'0 0.3
2017-Sep-13 00:56N 04°38' W 002°55'0 0.7
2017-Sep-13 00:28N 04°38' W 002°55'1 1.2
2017-Sep-12 23:53N 04°38' W 002°55'1 1.7
2017-Sep-12 23:29N 04°38' W 002°55'2 1.4
2017-Sep-12 21:56N 04°38' W 002°57'1 1.3
2017-Sep-12 21:29N 04°37' W 002°57'0 0.9
2017-Sep-12 21:00N 04°37' W 002°57'0 0.7
2017-Sep-12 20:28N 04°37' W 002°56'0 0.8
2017-Sep-12 19:59N 04°37' W 002°56'0 1.0
2017-Sep-12 19:29N 04°37' W 002°56'1 1.0
2017-Sep-12 18:58N 04°37' W 002°55'0 1.0
2017-Sep-12 18:30N 04°37' W 002°55'1 1.0
2017-Sep-12 17:59N 04°37' W 002°54'1 1.0
2017-Sep-12 17:13N 04°37' W 002°53'0 0.9
2017-Sep-12 17:00N 04°37' W 002°53'1 0.9
2017-Sep-12 16:27N 04°37' W 002°53'1 1.5
2017-Sep-12 16:00N 04°36' W 002°52'1 2.3
2017-Sep-12 15:29N 04°35' W 002°52'1 2.8
2017-Sep-12 14:59N 04°34' W 002°53'  

Dump ship's entire track history